Time;durP1;ratioP1;P1;durP2;ratioP2;P2;SDS_P1;SDS_P2;PMS_P1;PMS_P2;Temp;Humidity;BMP_temperature;BMP_pressure;BME280_temperature;BME280_humidity;BME280_pressure;Samples;Min_cycle;Max_cycle;Signal;HPM_P1;HPM_P2
2023/02/22 00:02:27;;;;;;;3.83;1.27;;;;;;;;;;4989520;28;20063;-63
2023/02/22 00:04:57;;;;;;;5.22;1.50;;;;;;;;;;4991205;28;20086;-63
2023/02/22 00:07:27;;;;;;;1.95;1.10;;;;;;;;;;4944646;28;20546;-62
2023/02/22 00:09:59;;;;;;;8.02;1.33;;;;;;;;;;4992633;28;20062;-63
2023/02/22 00:12:29;;;;;;;6.60;1.35;;;;;;;;;;4959380;28;20061;-63
2023/02/22 00:14:59;;;;;;;6.25;2.00;;;;;;;;;;4998272;28;20068;-63
2023/02/22 00:17:29;;;;;;;4.47;1.83;;;;;;;;;;5032248;28;20513;-62
2023/02/22 00:20:04;;;;;;;5.80;1.60;;;;;;;;;;5027198;28;20057;-63
2023/02/22 00:22:34;;;;;;;4.85;2.30;;;;;;;;;;5053679;28;20401;-63
2023/02/22 00:25:04;;;;;;;8.18;2.03;;;;;;;;;;5054685;28;20396;-63
2023/02/22 00:27:34;;;;;;;4.43;1.92;;;;;;;;;;5054641;28;20048;-63
2023/02/22 00:30:06;;;;;;;5.50;1.60;;;;;;;;;;5031817;28;20068;-63
2023/02/22 00:32:37;;;;;;;3.30;1.33;;;;;;;;;;5032006;28;20053;-62
2023/02/22 00:35:08;;;;;;;4.80;1.55;;;;;;;;;;5031892;28;20074;-63
2023/02/22 00:37:40;;;;;;;5.03;2.38;;;;;;;;;;4992809;28;20054;-63
2023/02/22 00:40:17;;;;;;;7.45;2.20;;;;;;;;;;4960312;28;20054;-64
2023/02/22 00:42:48;;;;;;;5.07;2.38;;;;;;;;;;4960130;28;20520;-62
2023/02/22 00:45:20;;;;;;;8.70;1.80;;;;;;;;;;4992115;28;20054;-63
2023/02/22 00:47:50;;;;;;;5.13;2.22;;;;;;;;;;4940855;28;20054;-63
2023/02/22 00:50:23;;;;;;;5.25;1.88;;;;;;;;;;4972855;28;20065;-62
2023/02/22 00:52:55;;;;;;;5.10;1.92;;;;;;;;;;4972914;28;20507;-62
2023/02/22 00:55:31;;;;;;;8.02;2.45;;;;;;;;;;4972307;28;20427;-62
2023/02/22 00:58:01;;;;;;;5.03;2.53;;;;;;;;;;4934024;29;20425;-62
2023/02/22 01:00:36;;;;;;;5.65;2.13;;;;;;;;;;4887310;29;20063;-62
2023/02/22 01:03:09;;;;;;;4.05;1.67;;;;;;;;;;4914950;29;20056;-62
2023/02/22 01:05:39;;;;;;;5.75;2.72;;;;;;;;;;4915152;29;20071;-62
2023/02/22 01:08:12;;;;;;;3.30;1.60;;;;;;;;;;4915020;29;20063;-62
2023/02/22 01:10:43;;;;;;;4.32;1.75;;;;;;;;;;4914458;29;20068;-62
2023/02/22 01:13:13;;;;;;;5.70;1.90;;;;;;;;;;4915080;29;20068;-63
2023/02/22 01:15:44;;;;;;;4.88;1.85;;;;;;;;;;4927885;29;20069;-62
2023/02/22 01:18:16;;;;;;;4.40;1.63;;;;;;;;;;4921070;28;20411;-62
2023/02/22 01:20:46;;;;;;;4.00;1.80;;;;;;;;;;4971897;28;20569;-63
2023/02/22 01:23:16;;;;;;;6.97;2.42;;;;;;;;;;4933759;29;20688;-62
2023/02/22 01:25:46;;;;;;;4.25;1.95;;;;;;;;;;4934021;29;20413;-62
2023/02/22 01:28:16;;;;;;;3.05;1.60;;;;;;;;;;4938099;28;20060;-62
2023/02/22 01:30:46;;;;;;;5.82;1.88;;;;;;;;;;4991204;28;20066;-62
2023/02/22 01:33:17;;;;;;;5.35;2.28;;;;;;;;;;4991380;28;20069;-64
2023/02/22 01:35:48;;;;;;;8.63;2.10;;;;;;;;;;4991205;28;20054;-64
2023/02/22 01:38:18;;;;;;;12.00;2.30;;;;;;;;;;4975392;28;20058;-64
2023/02/22 01:40:50;;;;;;;6.40;1.83;;;;;;;;;;4978183;28;20061;-62
2023/02/22 01:43:20;;;;;;;8.88;2.53;;;;;;;;;;5010940;28;20050;-62
2023/02/22 01:46:04;;;;;;;5.43;1.90;;;;;;;;;;5010646;28;20041;-63
2023/02/22 01:48:59;;;;;;;5.38;2.03;;;;;;;;;;4959871;28;20049;-62
2023/02/22 01:51:36;;;;;;;7.45;2.33;;;;;;;;;;4971649;28;20534;-64
2023/02/22 01:54:12;;;;;;;5.60;2.13;;;;;;;;;;4970886;28;20864;-62
2023/02/22 01:56:49;;;;;;;11.00;1.80;;;;;;;;;;4987544;28;20625;-63
2023/02/22 01:59:21;;;;;;;8.88;1.67;;;;;;;;;;4955992;28;20054;-63
2023/02/22 02:01:51;;;;;;;3.70;1.55;;;;;;;;;;4942967;28;20117;-63
2023/02/22 02:04:24;;;;;;;3.33;1.70;;;;;;;;;;4970554;28;20200;-63
2023/02/22 02:07:01;;;;;;;7.28;1.92;;;;;;;;;;5001831;28;20426;-65
2023/02/22 02:09:59;;;;;;;4.13;1.63;;;;;;;;;;4955287;28;20051;-64
2023/02/22 02:12:33;;;;;;;5.32;1.85;;;;;;;;;;4949523;28;20043;-63
2023/02/22 02:15:31;;;;;;;7.50;1.85;;;;;;;;;;4913451;29;20056;-64
2023/02/22 02:18:09;;;;;;;3.72;1.65;;;;;;;;;;4894280;29;20061;-64
2023/02/22 02:20:56;;;;;;;3.47;1.80;;;;;;;;;;4895097;29;20061;-63
2023/02/22 02:23:56;;;;;;;8.40;2.35;;;;;;;;;;4863876;29;20063;-63
2023/02/22 02:26:45;;;;;;;6.18;2.33;;;;;;;;;;4865942;29;20069;-64
2023/02/22 02:29:52;;;;;;;5.95;2.38;;;;;;;;;;4875889;29;20445;-64
2023/02/22 02:32:40;;;;;;;7.38;2.50;;;;;;;;;;4891603;29;20076;-63
2023/02/22 02:35:15;;;;;;;4.47;2.20;;;;;;;;;;4875644;29;20536;-63
2023/02/22 02:37:55;;;;;;;6.32;2.20;;;;;;;;;;4872422;29;20053;-63
2023/02/22 02:40:48;;;;;;;6.07;2.42;;;;;;;;;;4848721;29;20050;-63
2023/02/22 02:43:25;;;;;;;9.07;2.53;;;;;;;;;;4875971;29;20057;-63
2023/02/22 02:46:18;;;;;;;6.00;2.58;;;;;;;;;;4871729;29;20422;-64
2023/02/22 02:48:56;;;;;;;6.47;2.38;;;;;;;;;;4891174;29;20072;-63
2023/02/22 02:51:36;;;;;;;9.25;2.42;;;;;;;;;;4909753;29;20044;-64
2023/02/22 02:54:08;;;;;;;5.60;2.28;;;;;;;;;;4913271;29;20056;-63
2023/02/22 02:56:38;;;;;;;6.97;2.47;;;;;;;;;;4946757;29;20071;-63
2023/02/22 02:59:38;;;;;;;7.78;3.17;;;;;;;;;;4951377;29;20063;-63
2023/02/22 03:02:36;;;;;;;10.68;2.53;;;;;;;;;;4943878;28;20052;-64
2023/02/22 03:06:00;;;;;;;8.88;2.78;;;;;;;;;;4881811;29;20068;-63
2023/02/22 03:08:41;;;;;;;6.40;3.10;;;;;;;;;;4907251;29;20415;-63
2023/02/22 03:11:18;;;;;;;7.53;2.42;;;;;;;;;;4913071;29;20071;-63
2023/02/22 03:14:08;;;;;;;8.02;3.03;;;;;;;;;;4893917;29;20189;-64
2023/02/22 03:17:11;;;;;;;6.53;2.67;;;;;;;;;;4894211;29;20061;-63
2023/02/22 03:20:03;;;;;;;6.93;3.00;;;;;;;;;;4893992;29;20067;-64
2023/02/22 03:22:42;;;;;;;5.68;2.80;;;;;;;;;;4893829;29;20282;-63
2023/02/22 03:25:20;;;;;;;7.28;3.38;;;;;;;;;;4850163;29;20524;-63
2023/02/22 03:28:01;;;;;;;7.10;2.47;;;;;;;;;;4931745;29;20047;-63
2023/02/22 03:30:30;;;;;;;8.18;2.90;;;;;;;;;;4912082;29;20088;-64
2023/02/22 03:33:20;;;;;;;7.97;2.90;;;;;;;;;;4912550;29;20531;-64
2023/02/22 03:35:56;;;;;;;5.30;2.80;;;;;;;;;;4912368;29;20044;-63
2023/02/22 03:38:29;;;;;;;7.57;3.17;;;;;;;;;;4907784;29;20067;-64
2023/02/22 03:41:01;;;;;;;8.35;2.70;;;;;;;;;;4927164;29;20048;-63
2023/02/22 03:43:39;;;;;;;9.50;2.50;;;;;;;;;;4892952;29;20057;-63
2023/02/22 03:46:14;;;;;;;6.45;2.55;;;;;;;;;;4893450;29;20088;-63
2023/02/22 03:49:04;;;;;;;8.13;3.00;;;;;;;;;;4874869;29;20057;-64
2023/02/22 03:51:38;;;;;;;6.65;2.70;;;;;;;;;;4853903;29;20178;-63
2023/02/22 03:54:15;;;;;;;6.15;2.60;;;;;;;;;;4874188;29;20053;-61
2023/02/22 03:56:55;;;;;;;7.32;2.42;;;;;;;;;;4874592;29;20688;-62
2023/02/22 03:59:26;;;;;;;8.85;3.20;;;;;;;;;;4890045;29;20057;-63
2023/02/22 04:01:57;;;;;;;10.20;3.05;;;;;;;;;;4893324;29;20056;-63
2023/02/22 04:04:28;;;;;;;8.10;2.42;;;;;;;;;;4879877;29;20053;-63
2023/02/22 04:07:00;;;;;;;9.38;2.83;;;;;;;;;;4837809;29;20113;-64
2023/02/22 04:09:30;;;;;;;5.63;2.20;;;;;;;;;;4837411;29;20065;-63
2023/02/22 04:12:00;;;;;;;6.95;2.20;;;;;;;;;;4849982;29;20536;-63
2023/02/22 04:14:35;;;;;;;5.07;2.40;;;;;;;;;;4856073;29;20070;-64
2023/02/22 04:17:06;;;;;;;5.28;2.30;;;;;;;;;;4893200;29;20057;-63
2023/02/22 04:19:36;;;;;;;5.88;2.22;;;;;;;;;;4878516;29;20422;-63
2023/02/22 04:22:08;;;;;;;6.05;2.10;;;;;;;;;;4904778;29;20052;-63
2023/02/22 04:24:38;;;;;;;6.60;1.95;;;;;;;;;;4869969;29;20069;-63
2023/02/22 04:27:08;;;;;;;6.60;2.10;;;;;;;;;;4893244;29;20049;-63
2023/02/22 04:29:38;;;;;;;4.93;1.85;;;;;;;;;;4844097;29;20545;-64
2023/02/22 04:32:09;;;;;;;4.63;1.80;;;;;;;;;;4792292;29;20061;-63
2023/02/22 04:34:39;;;;;;;6.25;2.28;;;;;;;;;;4863522;29;20061;-64
2023/02/22 04:37:09;;;;;;;7.03;2.15;;;;;;;;;;4843414;29;20068;-63
2023/02/22 04:39:40;;;;;;;10.23;2.67;;;;;;;;;;4883516;29;20052;-63
2023/02/22 04:42:11;;;;;;;7.13;2.28;;;;;;;;;;4874258;29;20057;-63
2023/02/22 04:44:41;;;;;;;6.30;2.33;;;;;;;;;;4873990;29;20049;-63
2023/02/22 04:47:11;;;;;;;6.68;2.33;;;;;;;;;;4855889;29;20538;-63
2023/02/22 04:49:40;;;;;;;9.75;2.58;;;;;;;;;;4892975;29;20056;-64
2023/02/22 04:52:15;;;;;;;7.15;2.75;;;;;;;;;;4853399;29;20049;-63
2023/02/22 04:54:45;;;;;;;6.90;2.67;;;;;;;;;;4858640;29;20061;-63
2023/02/22 04:57:15;;;;;;;6.55;3.08;;;;;;;;;;4850306;29;20411;-63
2023/02/22 04:59:44;;;;;;;9.45;2.80;;;;;;;;;;4821950;29;20115;-63
2023/02/22 05:02:14;;;;;;;7.80;2.88;;;;;;;;;;4788946;29;20058;-62
2023/02/22 05:04:44;;;;;;;9.48;3.30;;;;;;;;;;4750174;30;20075;-63
2023/02/22 05:07:14;;;;;;;6.07;2.15;;;;;;;;;;4820325;29;20050;-63
2023/02/22 05:09:44;;;;;;;6.50;2.35;;;;;;;;;;4840473;29;20053;-62
2023/02/22 05:12:14;;;;;;;7.10;2.50;;;;;;;;;;4854692;29;20088;-62
2023/02/22 05:14:43;;;;;;;7.63;2.40;;;;;;;;;;4835550;29;20210;-62
2023/02/22 05:17:13;;;;;;;5.97;2.13;;;;;;;;;;4840266;29;20637;-62
2023/02/22 05:19:43;;;;;;;6.85;2.38;;;;;;;;;;4839259;29;20422;-63
2023/02/22 05:22:12;;;;;;;5.30;2.38;;;;;;;;;;4856567;29;20701;-63
2023/02/22 05:24:42;;;;;;;6.22;2.40;;;;;;;;;;4898830;29;20521;-63
2023/02/22 05:27:12;;;;;;;7.63;2.40;;;;;;;;;;4863032;29;20059;-63
2023/02/22 05:29:42;;;;;;;8.75;2.13;;;;;;;;;;4915038;29;20100;-63
2023/02/22 05:32:11;;;;;;;5.40;2.10;;;;;;;;;;4938060;28;20051;-62
2023/02/22 05:34:41;;;;;;;6.88;2.05;;;;;;;;;;4940342;28;20059;-64
2023/02/22 05:37:11;;;;;;;10.15;1.98;;;;;;;;;;4980118;28;20066;-63
2023/02/22 05:39:41;;;;;;;7.93;2.33;;;;;;;;;;5048022;28;20060;-64
2023/02/22 05:42:11;;;;;;;4.43;2.03;;;;;;;;;;5073232;28;20045;-64
2023/02/22 05:44:40;;;;;;;6.32;1.77;;;;;;;;;;5037231;28;20056;-65
2023/02/22 05:47:10;;;;;;;6.10;2.15;;;;;;;;;;5036920;28;20052;-64
2023/02/22 05:49:40;;;;;;;6.43;2.10;;;;;;;;;;5055790;28;20045;-64
2023/02/22 05:52:09;;;;;;;6.90;2.50;;;;;;;;;;5073337;28;20045;-63
2023/02/22 05:54:39;;;;;;;9.77;3.95;;;;;;;;;;5037724;28;20071;-62
2023/02/22 05:57:09;;;;;;;8.45;3.40;;;;;;;;;;5072861;28;20103;-62
2023/02/22 05:59:39;;;;;;;9.50;3.85;;;;;;;;;;5021101;28;20076;-63
2023/02/22 06:02:09;;;;;;;8.93;3.17;;;;;;;;;;5036324;28;20512;-62
2023/02/22 06:04:39;;;;;;;10.30;3.42;;;;;;;;;;5073046;28;20051;-62
2023/02/22 06:07:08;;;;;;;5.53;2.50;;;;;;;;;;5054569;28;20044;-62
2023/02/22 06:09:38;;;;;;;10.80;2.45;;;;;;;;;;5020831;28;20067;-63
2023/02/22 06:12:09;;;;;;;7.45;2.05;;;;;;;;;;5072974;28;20727;-63
2023/02/22 06:14:41;;;;;;;7.20;2.20;;;;;;;;;;5073063;28;20484;-63
2023/02/22 06:17:13;;;;;;;7.43;2.05;;;;;;;;;;5072565;28;20388;-63
2023/02/22 06:19:43;;;;;;;6.85;1.77;;;;;;;;;;5072737;28;20514;-62
2023/02/22 06:22:19;;;;;;;6.75;2.17;;;;;;;;;;5072282;28;20052;-62
2023/02/22 06:24:48;;;;;;;5.75;1.80;;;;;;;;;;5038337;28;20064;-64
2023/02/22 06:27:20;;;;;;;5.22;2.15;;;;;;;;;;5053732;28;20060;-62
2023/02/22 06:29:50;;;;;;;4.93;2.15;;;;;;;;;;5010247;28;20069;-63
2023/02/22 06:32:19;;;;;;;4.05;1.77;;;;;;;;;;4962829;28;20057;-63
2023/02/22 06:34:49;;;;;;;7.78;2.40;;;;;;;;;;4993806;28;20050;-63
2023/02/22 06:37:19;;;;;;;6.57;2.00;;;;;;;;;;4993420;28;20058;-62
2023/02/22 06:39:48;;;;;;;5.72;2.80;;;;;;;;;;5010130;28;20414;-63
2023/02/22 06:42:18;;;;;;;5.43;1.75;;;;;;;;;;4970660;28;20065;-62
2023/02/22 06:44:48;;;;;;;6.03;2.17;;;;;;;;;;4970935;28;20066;-63
2023/02/22 06:47:19;;;;;;;5.50;2.13;;;;;;;;;;4971091;28;20051;-63
2023/02/22 06:49:56;;;;;;;5.05;1.83;;;;;;;;;;4971024;28;20066;-63
2023/02/22 06:52:26;;;;;;;6.68;2.22;;;;;;;;;;4970731;28;20058;-63
2023/02/22 06:54:55;;;;;;;8.10;2.55;;;;;;;;;;4970950;28;20545;-63
2023/02/22 06:57:25;;;;;;;8.13;2.53;;;;;;;;;;4938410;28;20069;-63
2023/02/22 06:59:56;;;;;;;7.38;2.85;;;;;;;;;;4973784;28;20434;-63
2023/02/22 07:02:26;;;;;;;6.85;2.45;;;;;;;;;;4993083;28;20633;-62
2023/02/22 07:04:55;;;;;;;5.30;2.08;;;;;;;;;;4977117;28;20051;-63
2023/02/22 07:07:25;;;;;;;5.93;2.13;;;;;;;;;;5009371;28;20089;-63
2023/02/22 07:09:55;;;;;;;6.57;2.10;;;;;;;;;;5009843;28;20080;-63
2023/02/22 07:12:26;;;;;;;7.25;2.15;;;;;;;;;;5009179;28;20069;-63
2023/02/22 07:14:56;;;;;;;11.80;2.90;;;;;;;;;;4992791;28;20677;-63
2023/02/22 07:17:25;;;;;;;8.20;2.15;;;;;;;;;;4960766;28;20046;-62
2023/02/22 07:19:55;;;;;;;8.32;1.92;;;;;;;;;;4999116;28;20056;-63
2023/02/22 07:22:25;;;;;;;5.65;2.60;;;;;;;;;;5036055;28;20055;-63
2023/02/22 07:24:56;;;;;;;5.30;2.47;;;;;;;;;;5053248;28;20068;-63
2023/02/22 07:27:25;;;;;;;8.88;2.95;;;;;;;;;;5071240;28;20048;-63
2023/02/22 07:29:55;;;;;;;11.27;3.10;;;;;;;;;;5036249;28;20052;-63
2023/02/22 07:32:25;;;;;;;7.85;2.67;;;;;;;;;;5071296;28;20051;-65
2023/02/22 07:34:55;;;;;;;7.30;2.10;;;;;;;;;;5035804;28;20052;-63
2023/02/22 07:37:24;;;;;;;5.80;2.13;;;;;;;;;;5071337;28;20052;-63
2023/02/22 07:39:54;;;;;;;5.40;2.17;;;;;;;;;;5036122;28;20056;-63
2023/02/22 07:42:24;;;;;;;5.70;2.30;;;;;;;;;;5019227;28;20127;-63
2023/02/22 07:44:54;;;;;;;5.75;2.13;;;;;;;;;;5071353;28;20045;-63
2023/02/22 07:47:23;;;;;;;4.72;2.22;;;;;;;;;;5035758;28;20059;-63
2023/02/22 07:49:53;;;;;;;4.32;1.77;;;;;;;;;;5035496;28;20052;-63
2023/02/22 07:52:23;;;;;;;5.95;2.13;;;;;;;;;;5071139;28;20396;-62
2023/02/22 07:54:54;;;;;;;10.85;2.53;;;;;;;;;;5037131;28;20416;-62
2023/02/22 07:57:24;;;;;;;7.65;2.42;;;;;;;;;;5071167;28;20464;-62
2023/02/22 07:59:54;;;;;;;6.28;1.70;;;;;;;;;;5071049;28;20090;-63
2023/02/22 08:02:25;;;;;;;4.30;2.03;;;;;;;;;;5051599;28;20515;-64
2023/02/22 08:04:55;;;;;;;5.07;1.92;;;;;;;;;;5070971;28;20045;-63
2023/02/22 08:07:25;;;;;;;4.60;1.88;;;;;;;;;;5052728;28;20075;-62
2023/02/22 08:09:55;;;;;;;3.78;1.73;;;;;;;;;;5036137;28;20060;-63
2023/02/22 08:12:24;;;;;;;10.07;2.88;;;;;;;;;;5070853;28;20052;-63
2023/02/22 08:14:54;;;;;;;8.18;3.00;;;;;;;;;;5071132;28;20048;-63
2023/02/22 08:17:23;;;;;;;7.93;3.13;;;;;;;;;;5008615;28;20050;-62
2023/02/22 08:19:54;;;;;;;8.80;3.30;;;;;;;;;;5008721;28;20410;-63
2023/02/22 08:22:26;;;;;;;9.23;3.10;;;;;;;;;;5009004;28;20058;-63
2023/02/22 08:24:56;;;;;;;6.63;2.63;;;;;;;;;;5008824;28;20142;-63
2023/02/22 08:27:27;;;;;;;8.07;2.90;;;;;;;;;;5012935;28;20410;-63
2023/02/22 08:29:59;;;;;;;8.80;3.45;;;;;;;;;;4933639;28;20068;-63
2023/02/22 08:32:28;;;;;;;9.63;3.28;;;;;;;;;;5012801;28;20525;-63
2023/02/22 08:35:00;;;;;;;8.68;3.45;;;;;;;;;;5012224;28;20041;-63
2023/02/22 08:37:30;;;;;;;8.65;4.05;;;;;;;;;;4995965;28;20110;-64
2023/02/22 08:39:59;;;;;;;11.48;3.85;;;;;;;;;;4979900;28;20046;-63
2023/02/22 08:42:29;;;;;;;8.57;3.85;;;;;;;;;;4979944;28;20085;-64
2023/02/22 08:44:59;;;;;;;13.93;3.63;;;;;;;;;;5012336;28;20486;-63
2023/02/22 08:47:29;;;;;;;8.63;3.60;;;;;;;;;;5012367;28;20062;-64
2023/02/22 08:49:59;;;;;;;8.75;3.95;;;;;;;;;;5012275;28;20540;-63
2023/02/22 08:52:28;;;;;;;12.27;3.95;;;;;;;;;;4964026;28;20053;-63
2023/02/22 08:54:58;;;;;;;9.60;3.40;;;;;;;;;;4998063;28;20052;-63
2023/02/22 08:57:30;;;;;;;9.93;3.60;;;;;;;;;;5001986;28;20535;-63
2023/02/22 09:00:00;;;;;;;8.05;3.65;;;;;;;;;;5052065;28;20520;-63
2023/02/22 09:02:31;;;;;;;6.85;2.42;;;;;;;;;;5051683;28;20053;-63
2023/02/22 09:05:01;;;;;;;7.53;2.90;;;;;;;;;;5051481;28;20053;-64
2023/02/22 09:07:31;;;;;;;6.85;2.58;;;;;;;;;;5051477;28;20057;-63
2023/02/22 09:10:01;;;;;;;9.65;2.97;;;;;;;;;;5051775;28;20505;-64
2023/02/22 09:12:30;;;;;;;7.75;2.92;;;;;;;;;;5018433;28;20175;-64
2023/02/22 09:15:00;;;;;;;5.70;2.70;;;;;;;;;;5051000;28;20053;-63
2023/02/22 09:17:30;;;;;;;7.22;2.75;;;;;;;;;;4998400;28;20053;-63
2023/02/22 09:20:00;;;;;;;5.53;2.97;;;;;;;;;;5031170;28;20068;-63
2023/02/22 09:22:30;;;;;;;6.95;2.90;;;;;;;;;;5031468;28;20592;-63
2023/02/22 09:25:00;;;;;;;7.95;2.50;;;;;;;;;;5031892;28;20568;-63
2023/02/22 09:27:46;;;;;;;6.05;2.58;;;;;;;;;;5001972;28;20413;-63
2023/02/22 09:30:32;;;;;;;5.32;2.42;;;;;;;;;;5034187;28;20056;-63
2023/02/22 09:33:17;;;;;;;5.70;2.50;;;;;;;;;;4988736;28;20060;-63
2023/02/22 09:35:49;;;;;;;6.75;2.75;;;;;;;;;;5050639;28;20061;-63
2023/02/22 09:38:24;;;;;;;6.53;2.85;;;;;;;;;;5051112;28;20221;-63
2023/02/22 09:41:23;;;;;;;8.07;2.40;;;;;;;;;;5018135;28;20072;-64
2023/02/22 09:44:13;;;;;;;5.95;2.70;;;;;;;;;;4936518;29;20059;-64
2023/02/22 09:46:45;;;;;;;7.35;3.00;;;;;;;;;;4952937;29;20149;-64
2023/02/22 09:49:39;;;;;;;7.22;2.95;;;;;;;;;;4936266;29;20059;-64
2023/02/22 09:52:27;;;;;;;8.00;3.20;;;;;;;;;;4952837;29;20597;-64
2023/02/22 09:55:27;;;;;;;7.50;3.38;;;;;;;;;;4955589;28;20051;-65
2023/02/22 09:58:01;;;;;;;7.47;3.20;;;;;;;;;;4972050;28;20051;-64
2023/02/22 10:00:36;;;;;;;13.43;3.15;;;;;;;;;;4940394;28;20498;-64
2023/02/22 10:03:25;;;;;;;5.53;2.90;;;;;;;;;;4971831;28;20050;-64
2023/02/22 10:06:08;;;;;;;6.95;2.83;;;;;;;;;;4971780;28;20059;-64
2023/02/22 10:08:39;;;;;;;11.18;3.70;;;;;;;;;;4971858;28;20061;-62
2023/02/22 10:11:42;;;;;;;7.15;3.33;;;;;;;;;;4971358;28;20063;-62
2023/02/22 10:14:59;;;;;;;6.72;3.15;;;;;;;;;;4971612;28;20059;-62
2023/02/22 10:17:49;;;;;;;8.82;3.17;;;;;;;;;;4932924;29;20061;-64
2023/02/22 10:20:49;;;;;;;8.02;2.60;;;;;;;;;;4930044;28;20882;-64
2023/02/22 10:23:46;;;;;;;11.45;3.00;;;;;;;;;;4959337;28;20058;-64
2023/02/22 10:26:21;;;;;;;10.15;3.70;;;;;;;;;;4991158;28;20050;-64
2023/02/22 10:29:22;;;;;;;7.95;3.00;;;;;;;;;;4942861;28;20059;-64
2023/02/22 10:32:04;;;;;;;9.32;3.28;;;;;;;;;;4958615;28;20054;-64
2023/02/22 10:34:43;;;;;;;5.38;2.97;;;;;;;;;;4990572;28;20069;-64
2023/02/22 10:37:15;;;;;;;9.60;3.15;;;;;;;;;;4990471;28;20046;-64
2023/02/22 10:39:49;;;;;;;7.60;3.55;;;;;;;;;;4990575;28;20383;-64
2023/02/22 10:42:24;;;;;;;10.50;4.60;;;;;;;;;;4991095;28;20046;-64
2023/02/22 10:44:54;;;;;;;7.90;4.00;;;;;;;;;;4990310;28;20057;-64
2023/02/22 10:47:26;;;;;;;;;;;;;;;;;;4990725;28;20537;-64
2023/02/22 10:49:59;;;;;;;9.13;4.22;;;;;;;;;;4957265;28;20333;-64
2023/02/22 10:52:34;;;;;;;38.33;5.85;;;;;;;;;;4957955;28;20057;-64
2023/02/22 10:55:11;;;;;;;7.57;3.92;;;;;;;;;;5036394;28;20056;-64
2023/02/22 10:57:49;;;;;;;7.88;3.78;;;;;;;;;;5053984;28;20060;-65
2023/02/22 11:00:38;;;;;;;7.38;3.20;;;;;;;;;;5054622;28;20048;-64
2023/02/22 11:03:19;;;;;;;10.63;3.95;;;;;;;;;;5036066;28;20075;-64
2023/02/22 11:05:51;;;;;;;10.60;2.90;;;;;;;;;;5036152;28;20412;-64
2023/02/22 11:08:31;;;;;;;8.35;3.30;;;;;;;;;;5037718;28;20052;-64
2023/02/22 11:11:03;;;;;;;7.30;3.75;;;;;;;;;;5071419;28;20053;-64
2023/02/22 11:13:38;;;;;;;8.90;3.85;;;;;;;;;;5070387;28;20040;-64
2023/02/22 11:16:20;;;;;;;8.10;4.20;;;;;;;;;;5071387;28;20047;-64
2023/02/22 11:18:59;;;;;;;40.17;6.63;;;;;;;;;;5037054;28;20492;-63
2023/02/22 11:21:31;;;;;;;8.57;3.58;;;;;;;;;;5071184;28;20033;-63
2023/02/22 11:24:02;;;;;;;;;;;;;;;;;;5071973;28;20523;-64
2023/02/22 11:26:40;;;;;;;10.65;3.38;;;;;;;;;;5020915;28;19920;-63
2023/02/22 11:29:25;;;;;;;7.35;3.20;;;;;;;;;;5052831;28;20056;-64
2023/02/22 11:31:55;;;;;;;6.82;3.65;;;;;;;;;;5019312;28;20445;-64
2023/02/22 11:34:38;;;;;;;7.65;3.80;;;;;;;;;;5019604;28;20056;-64
2023/02/22 11:37:28;;;;;;;8.00;4.20;;;;;;;;;;5019279;28;20055;-64
2023/02/22 11:40:24;;;;;;;10.30;4.18;;;;;;;;;;5071122;28;20484;-64
2023/02/22 11:43:17;;;;;;;13.48;4.75;;;;;;;;;;5004898;28;20060;-64
2023/02/22 11:46:21;;;;;;;8.23;4.07;;;;;;;;;;5019778;28;20506;-64
2023/02/22 11:49:00;;;;;;;10.65;4.85;;;;;;;;;;4957268;28;20050;-64
2023/02/22 11:51:38;;;;;;;9.95;4.55;;;;;;;;;;4941510;28;20569;-64
2023/02/22 11:54:27;;;;;;;9.27;4.55;;;;;;;;;;4989611;28;20050;-64
2023/02/22 11:57:28;;;;;;;8.27;4.57;;;;;;;;;;4989349;28;20399;-64
2023/02/22 12:00:32;;;;;;;4.45;2.65;;;;;;;;;;4941610;28;20062;-64
2023/02/22 12:03:13;;;;;;;6.88;2.47;;;;;;;;;;4993584;28;20087;-64
2023/02/22 12:06:19;;;;;;;6.35;1.50;;;;;;;;;;4993376;28;20065;-65
2023/02/22 12:09:20;;;;;;;4.03;1.40;;;;;;;;;;4977093;28;20065;-64
2023/02/22 12:11:56;;;;;;;5.07;1.75;;;;;;;;;;4993100;28;20533;-64
2023/02/22 12:14:45;;;;;;;2.33;1.00;;;;;;;;;;4977462;28;20058;-65
2023/02/22 12:17:33;;;;;;;5.03;1.35;;;;;;;;;;4945193;28;20066;-64
2023/02/22 12:20:30;;;;;;;3.38;1.23;;;;;;;;;;4928581;28;20050;-65
2023/02/22 12:23:18;;;;;;;2.25;1.10;;;;;;;;;;4961126;28;20185;-64
2023/02/22 12:26:19;;;;;;;3.28;0.95;;;;;;;;;;5008270;28;20052;-64
2023/02/22 12:29:13;;;;;;;2.15;1.05;;;;;;;;;;5032462;28;20064;-64
2023/02/22 12:31:45;;;;;;;2.60;1.25;;;;;;;;;;5032734;28;20452;-65
2023/02/22 12:34:15;;;;;;;;;;;;;;;;;;5032929;28;20045;-64
2023/02/22 12:37:14;;;;;;;2.75;1.17;;;;;;;;;;5032423;28;19925;-64
2023/02/22 12:40:06;;;;;;;2.40;1.13;;;;;;;;;;5032091;28;20041;-64
2023/02/22 12:42:51;;;;;;;3.78;1.20;;;;;;;;;;5032235;28;20049;-64
2023/02/22 12:45:44;;;;;;;2.75;1.23;;;;;;;;;;4953087;28;20444;-64
2023/02/22 12:48:31;;;;;;;3.38;1.10;;;;;;;;;;4951252;28;20049;-65
2023/02/22 12:51:36;;;;;;;1.95;1.10;;;;;;;;;;4984255;28;20068;-65
2023/02/22 12:54:27;;;;;;;4.10;1.33;;;;;;;;;;5031630;28;20057;-65
2023/02/22 12:57:01;;;;;;;2.90;1.52;;;;;;;;;;5032113;28;20054;-64
2023/02/22 12:59:45;;;;;;;2.67;1.25;;;;;;;;;;4999167;28;20065;-62
2023/02/22 13:02:19;;;;;;;4.45;1.17;;;;;;;;;;4999813;28;20054;-65
2023/02/22 13:04:49;;;;;;;1.90;1.20;;;;;;;;;;5055384;28;20060;-66
2023/02/22 13:07:41;;;;;;;2.75;1.08;;;;;;;;;;5074623;28;20055;-63
2023/02/22 13:10:22;;;;;;;2.53;1.17;;;;;;;;;;5074358;28;20059;-63
2023/02/22 13:13:03;;;;;;;2.28;1.20;;;;;;;;;;5015404;28;20557;-63
2023/02/22 13:15:46;;;;;;;2.55;1.20;;;;;;;;;;5034351;28;20034;-63
2023/02/22 13:18:56;;;;;;;2.85;1.25;;;;;;;;;;5033636;28;20061;-63
2023/02/22 13:21:42;;;;;;;;;;;;;;;;;;4956646;28;20163;-63
2023/02/22 13:24:29;;;;;;;1.65;0.95;;;;;;;;;;4972738;28;19922;-62
2023/02/22 13:27:13;;;;;;;2.08;1.00;;;;;;;;;;4941163;28;20050;-63
2023/02/22 13:29:54;;;;;;;2.63;1.20;;;;;;;;;;4972571;28;20538;-63
2023/02/22 13:32:52;;;;;;;2.00;1.00;;;;;;;;;;4972872;28;20063;-63
2023/02/22 13:35:24;;;;;;;1.70;0.95;;;;;;;;;;4941002;28;20062;-64
2023/02/22 13:38:28;;;;;;;1.95;0.90;;;;;;;;;;4955701;28;20054;-63
2023/02/22 13:41:31;;;;;;;3.63;3.17;;;;;;;;;;4924984;28;20059;-64
2023/02/22 13:44:26;;;;;;;3.38;1.60;;;;;;;;;;4924266;28;20047;-63
2023/02/22 13:47:19;;;;;;;2.30;0.95;;;;;;;;;;4924707;28;20059;-63
2023/02/22 13:50:19;;;;;;;3.13;1.10;;;;;;;;;;4955828;28;20059;-64
2023/02/22 13:52:50;;;;;;;2.85;1.92;;;;;;;;;;4923639;28;20054;-64
2023/02/22 13:55:28;;;;;;;2.33;1.38;;;;;;;;;;4939019;28;20154;-63
2023/02/22 13:58:11;;;;;;;1.40;0.80;;;;;;;;;;5022388;28;20065;-64
2023/02/22 14:00:43;;;;;;;1.75;0.80;;;;;;;;;;5033018;28;20037;-63
2023/02/22 14:03:13;;;;;;;1.73;0.80;;;;;;;;;;4998669;28;20405;-63
2023/02/22 14:05:45;;;;;;;3.58;0.60;;;;;;;;;;5032882;28;20533;-64
2023/02/22 14:08:18;;;;;;;3.97;1.20;;;;;;;;;;5014152;28;20476;-64
2023/02/22 14:10:49;;;;;;;1.58;0.88;;;;;;;;;;5039413;28;20055;-63
2023/02/22 14:13:43;;;;;;;1.35;0.70;;;;;;;;;;5037375;28;20059;-64
2023/02/22 14:16:18;;;;;;;1.23;0.80;;;;;;;;;;4990565;28;20050;-64
2023/02/22 14:19:01;;;;;;;1.70;1.30;;;;;;;;;;4990648;28;20446;-65
2023/02/22 14:21:31;;;;;;;1.15;0.63;;;;;;;;;;4942491;28;20680;-64
2023/02/22 14:24:15;;;;;;;2.72;0.80;;;;;;;;;;4990033;28;20054;-64
2023/02/22 14:27:05;;;;;;;1.25;0.70;;;;;;;;;;4974821;28;20043;-64
2023/02/22 14:29:36;;;;;;;2.80;0.90;;;;;;;;;;4987646;28;20145;-64
2023/02/22 14:32:11;;;;;;;3.38;1.05;;;;;;;;;;4990482;28;20065;-66
2023/02/22 14:34:41;;;;;;;2.85;0.90;;;;;;;;;;4990707;28;20058;-64
2023/02/22 14:37:14;;;;;;;2.45;0.90;;;;;;;;;;4990213;28;20063;-64
2023/02/22 14:40:14;;;;;;;2.15;0.75;;;;;;;;;;4990512;28;20061;-65
2023/02/22 14:42:57;;;;;;;0.80;0.60;;;;;;;;;;4920494;29;20415;-63
2023/02/22 14:45:33;;;;;;;1.08;0.60;;;;;;;;;;4935702;29;20626;-64
2023/02/22 14:48:23;;;;;;;2.55;0.70;;;;;;;;;;4956185;28;20074;-64
2023/02/22 14:51:05;;;;;;;2.10;0.60;;;;;;;;;;4948262;29;20043;-64
2023/02/22 14:53:55;;;;;;;1.65;0.70;;;;;;;;;;4968148;28;20054;-64
2023/02/22 14:57:13;;;;;;;0.57;0.40;;;;;;;;;;4998094;28;20054;-64
2023/02/22 15:00:18;;;;;;;0.90;0.60;;;;;;;;;;4976863;28;20052;-66
2023/02/22 15:02:56;;;;;;;0.82;0.40;;;;;;;;;;5018505;28;20744;-64
2023/02/22 15:05:37;;;;;;;1.48;0.40;;;;;;;;;;4998726;28;20046;-65
2023/02/22 15:08:08;;;;;;;0.90;0.50;;;;;;;;;;5000767;28;20053;-64
2023/02/22 15:10:47;;;;;;;2.58;0.50;;;;;;;;;;4919786;28;20073;-65
2023/02/22 15:13:22;;;;;;;0.57;0.45;;;;;;;;;;4999174;28;20054;-66
2023/02/22 15:15:58;;;;;;;0.98;0.30;;;;;;;;;;4998896;28;20049;-66
2023/02/22 15:18:40;;;;;;;0.63;0.40;;;;;;;;;;4958316;28;20538;-68
2023/02/22 15:21:16;;;;;;;1.30;0.45;;;;;;;;;;5037708;28;20048;-66
2023/02/22 15:23:57;;;;;;;0.60;0.40;;;;;;;;;;5063713;28;20060;-66
2023/02/22 15:26:34;;;;;;;1.90;0.60;;;;;;;;;;5083408;28;20075;-68
2023/02/22 15:29:20;;;;;;;2.05;0.47;;;;;;;;;;5054355;28;20048;-64
2023/02/22 15:31:51;;;;;;;0.45;0.40;;;;;;;;;;5081954;28;20036;-65
2023/02/22 15:34:28;;;;;;;0.40;0.30;;;;;;;;;;5036948;28;20062;-64
2023/02/22 15:37:23;;;;;;;0.60;0.45;;;;;;;;;;5084052;28;20036;-64
2023/02/22 15:40:13;;;;;;;2.65;0.68;;;;;;;;;;5044446;28;20049;-64
2023/02/22 15:42:57;;;;;;;1.85;0.90;;;;;;;;;;5036791;28;20059;-65
2023/02/22 15:45:27;;;;;;;2.15;0.30;;;;;;;;;;5019147;28;20060;-64